sensor_id;sensor_type;location;lat;lon;timestamp;pressure;altitude;pressure_sealevel;temperature;humidity
74921;BME280;63483;47.384;8.860;2024-02-28T00:01:32;94393.69;;;4.84;50.85
74921;BME280;63483;47.384;8.860;2024-02-28T00:03:58;94395.31;;;4.85;50.53
74921;BME280;63483;47.384;8.860;2024-02-28T00:06:23;94392.72;;;4.85;50.85
74921;BME280;63483;47.384;8.860;2024-02-28T00:08:48;94404.06;;;4.84;50.62
74921;BME280;63483;47.384;8.860;2024-02-28T00:11:16;94399.72;;;4.85;50.63
74921;BME280;63483;47.384;8.860;2024-02-28T00:13:41;94392.72;;;4.85;50.48
74921;BME280;63483;47.384;8.860;2024-02-28T00:16:07;94394.53;;;4.85;50.80
74921;BME280;63483;47.384;8.860;2024-02-28T00:18:32;94396.44;;;4.83;50.70
74921;BME280;63483;47.384;8.860;2024-02-28T00:20:57;94404.91;;;4.85;50.90
74921;BME280;63483;47.384;8.860;2024-02-28T00:23:24;94403.25;;;4.84;50.53
74921;BME280;63483;47.384;8.860;2024-02-28T00:25:49;94409.13;;;4.86;50.64
74921;BME280;63483;47.384;8.860;2024-02-28T00:28:14;94409.94;;;4.86;50.54
74921;BME280;63483;47.384;8.860;2024-02-28T00:30:40;94414.31;;;4.86;50.75
74921;BME280;63483;47.384;8.860;2024-02-28T00:33:06;94415.28;;;4.85;51.00
74921;BME280;63483;47.384;8.860;2024-02-28T00:35:32;94425.66;;;4.85;50.63
74921;BME280;63483;47.384;8.860;2024-02-28T00:37:58;94426.63;;;4.84;50.95
74921;BME280;63483;47.384;8.860;2024-02-28T00:40:24;94435.09;;;4.86;51.06
74921;BME280;63483;47.384;8.860;2024-02-28T00:42:50;94422.13;;;4.86;51.17
74921;BME280;63483;47.384;8.860;2024-02-28T00:45:16;94433.16;;;4.88;50.80
74921;BME280;63483;47.384;8.860;2024-02-28T00:47:41;94437.38;;;4.89;51.23
74921;BME280;63483;47.384;8.860;2024-02-28T00:50:07;94436.41;;;4.90;51.05
74921;BME280;63483;47.384;8.860;2024-02-28T00:52:33;94419.88;;;4.91;50.98
74921;BME280;63483;47.384;8.860;2024-02-28T00:54:58;94425.06;;;4.91;51.07
74921;BME280;63483;47.384;8.860;2024-02-28T00:57:24;94430.94;;;4.93;50.74
74921;BME280;63483;47.384;8.860;2024-02-28T00:59:50;94424.78;;;4.94;51.19
74921;BME280;63483;47.384;8.860;2024-02-28T01:02:15;94429.16;;;4.93;50.82
74921;BME280;63483;47.384;8.860;2024-02-28T01:04:41;94424.78;;;4.94;50.87
74921;BME280;63483;47.384;8.860;2024-02-28T01:07:06;94435.16;;;4.94;51.29
74921;BME280;63483;47.384;8.860;2024-02-28T01:09:32;94428.34;;;4.93;51.14
74921;BME280;63483;47.384;8.860;2024-02-28T01:11:57;94426.44;;;4.95;50.96
74921;BME280;63483;47.384;8.860;2024-02-28T01:14:22;94436.81;;;4.95;50.77
74921;BME280;63483;47.384;8.860;2024-02-28T01:16:48;94429.03;;;4.95;51.25
74921;BME280;63483;47.384;8.860;2024-02-28T01:19:15;94432.56;;;4.94;51.27
74921;BME280;63483;47.384;8.860;2024-02-28T01:21:41;94443.91;;;4.93;50.91
74921;BME280;63483;47.384;8.860;2024-02-28T01:24:06;94435.16;;;4.94;51.06
74921;BME280;63483;47.384;8.860;2024-02-28T01:26:32;94441.31;;;4.93;51.15
74921;BME280;63483;47.384;8.860;2024-02-28T01:28:57;94441.31;;;4.93;51.16
74921;BME280;63483;47.384;8.860;2024-02-28T01:31:22;94447.47;;;4.92;51.30
74921;BME280;63483;47.384;8.860;2024-02-28T01:33:47;94448.56;;;4.89;51.10
74921;BME280;63483;47.384;8.860;2024-02-28T01:36:13;94445.03;;;4.90;50.99
74921;BME280;63483;47.384;8.860;2024-02-28T01:38:38;94440.94;;;4.88;51.55
74921;BME280;63483;47.384;8.860;2024-02-28T01:41:04;94441.84;;;4.78;51.44
74921;BME280;63483;47.384;8.860;2024-02-28T01:43:30;94447.97;;;4.77;51.71
74921;BME280;63483;47.384;8.860;2024-02-28T01:45:56;94440.50;;;4.74;52.13
74921;BME280;63483;47.384;8.860;2024-02-28T01:48:22;94433.66;;;4.73;51.67
74921;BME280;63483;47.384;8.860;2024-02-28T01:50:47;94438.56;;;4.76;52.08
74921;BME280;63483;47.384;8.860;2024-02-28T01:53:13;94439.38;;;4.77;51.73
74921;BME280;63483;47.384;8.860;2024-02-28T01:55:39;94445.09;;;4.81;51.95
74921;BME280;63483;47.384;8.860;2024-02-28T01:58:06;94444.94;;;4.82;51.88
74921;BME280;63483;47.384;8.860;2024-02-28T02:00:35;94437.94;;;4.83;51.82
74921;BME280;63483;47.384;8.860;2024-02-28T02:03:02;94444.78;;;4.84;51.94
74921;BME280;63483;47.384;8.860;2024-02-28T02:05:28;94449.97;;;4.84;51.88
74921;BME280;63483;47.384;8.860;2024-02-28T02:07:54;94447.69;;;4.81;51.94
74921;BME280;63483;47.384;8.860;2024-02-28T02:10:20;94456.13;;;4.83;52.00
74921;BME280;63483;47.384;8.860;2024-02-28T02:12:46;94464.44;;;4.86;51.71
74921;BME280;63483;47.384;8.860;2024-02-28T02:15:11;94459.25;;;4.86;51.72
74921;BME280;63483;47.384;8.860;2024-02-28T02:17:36;94451.31;;;4.88;51.88
74921;BME280;63483;47.384;8.860;2024-02-28T02:20:02;94458.16;;;4.89;51.53
74921;BME280;63483;47.384;8.860;2024-02-28T02:22:37;94451.00;;;4.91;51.56
74921;BME280;63483;47.384;8.860;2024-02-28T02:25:06;94455.41;;;4.90;51.75
74921;BME280;63483;47.384;8.860;2024-02-28T02:27:31;94449.38;;;4.90;51.38
74921;BME280;63483;47.384;8.860;2024-02-28T02:29:57;94457.31;;;4.88;51.81
74921;BME280;63483;47.384;8.860;2024-02-28T02:32:22;94461.31;;;4.83;51.48
74921;BME280;63483;47.384;8.860;2024-02-28T02:34:47;94457.75;;;4.84;51.74
74921;BME280;63483;47.384;8.860;2024-02-28T02:37:13;94457.41;;;4.78;52.00
74921;BME280;63483;47.384;8.860;2024-02-28T02:39:38;94457.41;;;4.78;51.65
74921;BME280;63483;47.384;8.860;2024-02-28T02:42:03;94443.84;;;4.67;52.04
74921;BME280;63483;47.384;8.860;2024-02-28T02:44:28;94450.19;;;4.08;48.89
74921;BME280;63483;47.384;8.860;2024-02-28T02:46:54;94444.81;;;3.54;49.10
74921;BME280;63483;47.384;8.860;2024-02-28T02:49:19;94441.78;;;2.73;47.09
74921;BME280;63483;47.384;8.860;2024-02-28T02:51:44;94446.66;;;2.37;48.00
74921;BME280;63483;47.384;8.860;2024-02-28T02:54:10;94443.69;;;2.51;51.61
74921;BME280;63483;47.384;8.860;2024-02-28T02:56:36;94444.75;;;2.48;50.76
74921;BME280;63483;47.384;8.860;2024-02-28T02:59:01;94445.19;;;2.63;56.39
74921;BME280;63483;47.384;8.860;2024-02-28T03:01:27;94445.59;;;2.49;53.10
74921;BME280;63483;47.384;8.860;2024-02-28T03:03:52;94452.63;;;2.27;53.88
74921;BME280;63483;47.384;8.860;2024-02-28T03:06:17;94454.41;;;1.86;51.06
74921;BME280;63483;47.384;8.860;2024-02-28T03:08:43;94449.38;;;1.44;50.43
74921;BME280;63483;47.384;8.860;2024-02-28T03:11:08;94454.94;;;1.28;50.36
74921;BME280;63483;47.384;8.860;2024-02-28T03:13:34;94465.88;;;0.99;50.60
74921;BME280;63483;47.384;8.860;2024-02-28T03:15:59;94465.63;;;1.02;52.16
74921;BME280;63483;47.384;8.860;2024-02-28T03:18:24;94467.06;;;0.74;50.23
74921;BME280;63483;47.384;8.860;2024-02-28T03:20:50;94475.91;;;0.60;50.86
74921;BME280;63483;47.384;8.860;2024-02-28T03:23:15;94481.44;;;0.55;50.54
74921;BME280;63483;47.384;8.860;2024-02-28T03:25:41;94483.34;;;0.42;50.30
74921;BME280;63483;47.384;8.860;2024-02-28T03:28:06;94491.50;;;0.59;50.91
74921;BME280;63483;47.384;8.860;2024-02-28T03:30:31;94492.78;;;0.85;51.23
74921;BME280;63483;47.384;8.860;2024-02-28T03:32:56;94497.28;;;0.83;50.22
74921;BME280;63483;47.384;8.860;2024-02-28T03:35:22;94506.75;;;0.83;50.83
74921;BME280;63483;47.384;8.860;2024-02-28T03:37:47;94505.16;;;1.03;48.40
74921;BME280;63483;47.384;8.860;2024-02-28T03:40:12;94507.34;;;0.86;47.70
74921;BME280;63483;47.384;8.860;2024-02-28T03:42:39;94508.47;;;0.94;48.17
74921;BME280;63483;47.384;8.860;2024-02-28T03:45:05;94510.78;;;1.29;51.57
74921;BME280;63483;47.384;8.860;2024-02-28T03:47:30;94510.38;;;1.76;55.12
74921;BME280;63483;47.384;8.860;2024-02-28T03:49:56;94512.72;;;2.20;55.47
74921;BME280;63483;47.384;8.860;2024-02-28T03:52:22;94519.34;;;2.53;56.06
74921;BME280;63483;47.384;8.860;2024-02-28T03:54:48;94518.84;;;2.79;55.78
74921;BME280;63483;47.384;8.860;2024-02-28T03:57:13;94506.59;;;3.00;56.20
74921;BME280;63483;47.384;8.860;2024-02-28T03:59:40;94515.59;;;3.16;55.05
74921;BME280;63483;47.384;8.860;2024-02-28T04:02:05;94528.22;;;3.29;56.41
74921;BME280;63483;47.384;8.860;2024-02-28T04:04:31;94527.81;;;3.14;56.22
74921;BME280;63483;47.384;8.860;2024-02-28T04:06:56;94517.50;;;3.33;55.89
74921;BME280;63483;47.384;8.860;2024-02-28T04:09:22;94527.69;;;3.54;55.74
74921;BME280;63483;47.384;8.860;2024-02-28T04:11:47;94523.03;;;3.58;55.81
74921;BME280;63483;47.384;8.860;2024-02-28T04:14:13;94524.84;;;3.48;56.14
74921;BME280;63483;47.384;8.860;2024-02-28T04:16:42;94523.31;;;3.55;55.54
74921;BME280;63483;47.384;8.860;2024-02-28T04:19:09;94520.88;;;3.63;55.32
74921;BME280;63483;47.384;8.860;2024-02-28T04:21:34;94520.69;;;3.75;55.15
74921;BME280;63483;47.384;8.860;2024-02-28T04:24:00;94517.44;;;3.72;55.29
74921;BME280;63483;47.384;8.860;2024-02-28T04:26:25;94530.47;;;3.90;54.95
74921;BME280;63483;47.384;8.860;2024-02-28T04:28:50;94524.63;;;3.79;54.81
74921;BME280;63483;47.384;8.860;2024-02-28T04:31:16;94531.56;;;3.88;54.76
74921;BME280;63483;47.384;8.860;2024-02-28T04:33:41;94524.84;;;3.48;55.25
74921;BME280;63483;47.384;8.860;2024-02-28T04:36:06;94529.44;;;3.74;54.48
74921;BME280;63483;47.384;8.860;2024-02-28T04:38:32;94531.97;;;3.93;54.02
74921;BME280;63483;47.384;8.860;2024-02-28T04:40:57;94545.28;;;3.98;53.86
74921;BME280;63483;47.384;8.860;2024-02-28T04:43:22;94533.41;;;4.05;53.62
74921;BME280;63483;47.384;8.860;2024-02-28T04:45:47;94536.44;;;4.01;53.73
74921;BME280;63483;47.384;8.860;2024-02-28T04:48:13;94543.19;;;4.12;53.81
74921;BME280;63483;47.384;8.860;2024-02-28T04:50:39;94549.47;;;4.19;53.37
74921;BME280;63483;47.384;8.860;2024-02-28T04:53:04;94550.72;;;4.15;53.60
74921;BME280;63483;47.384;8.860;2024-02-28T04:55:29;94547.84;;;4.18;53.26
74921;BME280;63483;47.384;8.860;2024-02-28T04:57:54;94555.81;;;3.97;53.85
74921;BME280;63483;47.384;8.860;2024-02-28T05:00:20;94557.16;;;4.11;53.23
74921;BME280;63483;47.384;8.860;2024-02-28T05:02:45;94549.81;;;3.96;54.11
74921;BME280;63483;47.384;8.860;2024-02-28T05:05:10;94555.13;;;4.04;54.12
74921;BME280;63483;47.384;8.860;2024-02-28T05:07:36;94552.03;;;3.91;54.34
74921;BME280;63483;47.384;8.860;2024-02-28T05:10:03;94563.16;;;4.01;53.73
74921;BME280;63483;47.384;8.860;2024-02-28T05:12:29;94575.72;;;4.06;53.90
74921;BME280;63483;47.384;8.860;2024-02-28T05:14:54;94568.81;;;3.77;54.43
74921;BME280;63483;47.384;8.860;2024-02-28T05:17:20;94579.03;;;3.79;54.40
74921;BME280;63483;47.384;8.860;2024-02-28T05:19:45;94577.69;;;3.75;54.44
74921;BME280;63483;47.384;8.860;2024-02-28T05:22:10;94582.84;;;3.94;54.21
74921;BME280;63483;47.384;8.860;2024-02-28T05:24:36;94587.50;;;3.71;54.73
74921;BME280;63483;47.384;8.860;2024-02-28T05:27:02;94586.97;;;3.67;54.83
74921;BME280;63483;47.384;8.860;2024-02-28T05:29:27;94594.34;;;3.62;55.06
74921;BME280;63483;47.384;8.860;2024-02-28T05:31:52;94591.88;;;3.70;54.94
74921;BME280;63483;47.384;8.860;2024-02-28T05:34:18;94593.50;;;3.71;54.53
74921;BME280;63483;47.384;8.860;2024-02-28T05:36:44;94596.50;;;3.77;54.16
74921;BME280;63483;47.384;8.860;2024-02-28T05:39:09;94602.66;;;3.56;54.86
74921;BME280;63483;47.384;8.860;2024-02-28T05:41:34;94606.31;;;3.73;54.39
74921;BME280;63483;47.384;8.860;2024-02-28T05:44:00;94607.94;;;3.84;53.84
74921;BME280;63483;47.384;8.860;2024-02-28T05:46:25;94606.03;;;3.96;53.68
74921;BME280;63483;47.384;8.860;2024-02-28T05:48:50;94612.56;;;3.90;53.47
74921;BME280;63483;47.384;8.860;2024-02-28T05:51:16;94615.28;;;3.98;53.03
74921;BME280;63483;47.384;8.860;2024-02-28T05:53:41;94621.00;;;3.92;53.10
74921;BME280;63483;47.384;8.860;2024-02-28T05:56:08;94629.22;;;3.87;52.82
74921;BME280;63483;47.384;8.860;2024-02-28T05:58:41;94630.44;;;3.93;53.06
74921;BME280;63483;47.384;8.860;2024-02-28T06:01:08;94624.31;;;3.94;53.05
74921;BME280;63483;47.384;8.860;2024-02-28T06:03:34;94629.34;;;3.96;52.51
74921;BME280;63483;47.384;8.860;2024-02-28T06:05:59;94634.09;;;4.00;52.27
74921;BME280;63483;47.384;8.860;2024-02-28T06:08:25;94638.75;;;3.87;52.63
74921;BME280;63483;47.384;8.860;2024-02-28T06:10:50;94643.09;;;3.86;52.65
74921;BME280;63483;47.384;8.860;2024-02-28T06:13:17;94650.59;;;3.99;52.37
74921;BME280;63483;47.384;8.860;2024-02-28T06:15:43;94655.34;;;4.14;51.94
74921;BME280;63483;47.384;8.860;2024-02-28T06:18:08;94650.41;;;4.20;51.61
74921;BME280;63483;47.384;8.860;2024-02-28T06:20:34;94659.72;;;4.13;52.06
74921;BME280;63483;47.384;8.860;2024-02-28T06:22:59;94662.84;;;4.17;51.57
74921;BME280;63483;47.384;8.860;2024-02-28T06:25:25;94666.56;;;3.85;52.18
74921;BME280;63483;47.384;8.860;2024-02-28T06:27:52;94673.66;;;4.02;51.73
74921;BME280;63483;47.384;8.860;2024-02-28T06:30:18;94673.66;;;4.02;51.91
74921;BME280;63483;47.384;8.860;2024-02-28T06:32:43;94681.31;;;3.94;51.95
74921;BME280;63483;47.384;8.860;2024-02-28T06:35:09;94685.94;;;4.00;51.58
74921;BME280;63483;47.384;8.860;2024-02-28T06:37:35;94690.00;;;4.13;51.04
74921;BME280;63483;47.384;8.860;2024-02-28T06:40:00;94693.53;;;4.12;51.37
74921;BME280;63483;47.384;8.860;2024-02-28T06:42:26;94700.94;;;4.16;51.19
74921;BME280;63483;47.384;8.860;2024-02-28T06:44:51;94702.03;;;4.14;51.37
74921;BME280;63483;47.384;8.860;2024-02-28T06:47:17;94705.69;;;4.21;51.11
74921;BME280;63483;47.384;8.860;2024-02-28T06:49:43;94700.38;;;4.22;51.08
74921;BME280;63483;47.384;8.860;2024-02-28T06:52:08;94710.34;;;4.07;51.01
74921;BME280;63483;47.384;8.860;2024-02-28T06:54:34;94708.56;;;4.18;50.52
74921;BME280;63483;47.384;8.860;2024-02-28T06:56:59;94707.75;;;3.98;51.11
74921;BME280;63483;47.384;8.860;2024-02-28T06:59:24;94712.94;;;4.07;51.21
74921;BME280;63483;47.384;8.860;2024-02-28T07:01:49;94712.53;;;3.63;49.57
74921;BME280;63483;47.384;8.860;2024-02-28T07:04:15;94719.59;;;3.01;47.05
74921;BME280;63483;47.384;8.860;2024-02-28T07:06:40;94716.41;;;2.57;47.36
74921;BME280;63483;47.384;8.860;2024-02-28T07:09:08;94720.03;;;2.23;48.04
74921;BME280;63483;47.384;8.860;2024-02-28T07:11:34;94727.59;;;2.15;52.28
74921;BME280;63483;47.384;8.860;2024-02-28T07:13:59;94732.84;;;1.92;48.17
74921;BME280;63483;47.384;8.860;2024-02-28T07:16:30;94728.66;;;2.34;52.68
74921;BME280;63483;47.384;8.860;2024-02-28T07:18:57;94725.88;;;2.04;48.77
74921;BME280;63483;47.384;8.860;2024-02-28T07:21:22;94733.97;;;2.32;51.34
74921;BME280;63483;47.384;8.860;2024-02-28T07:23:48;94746.88;;;2.53;53.35
74921;BME280;63483;47.384;8.860;2024-02-28T07:26:17;94741.72;;;2.11;54.03
74921;BME280;63483;47.384;8.860;2024-02-28T07:28:43;94742.94;;;1.95;52.67
74921;BME280;63483;47.384;8.860;2024-02-28T07:31:17;94750.09;;;1.71;53.63
74921;BME280;63483;47.384;8.860;2024-02-28T07:33:43;94751.69;;;1.39;48.23
74921;BME280;63483;47.384;8.860;2024-02-28T07:36:08;94750.25;;;1.58;51.05
74921;BME280;63483;47.384;8.860;2024-02-28T07:38:34;94761.59;;;1.78;51.16
74921;BME280;63483;47.384;8.860;2024-02-28T07:40:59;94759.03;;;1.55;52.41
74921;BME280;63483;47.384;8.860;2024-02-28T07:43:24;94760.25;;;1.51;51.31
74921;BME280;63483;47.384;8.860;2024-02-28T07:45:50;94757.91;;;1.37;48.44
74921;BME280;63483;47.384;8.860;2024-02-28T07:48:15;94757.66;;;1.29;49.28
74921;BME280;63483;47.384;8.860;2024-02-28T07:50:44;94754.34;;;1.38;48.42
74921;BME280;63483;47.384;8.860;2024-02-28T07:53:09;94760.69;;;1.56;50.52
74921;BME280;63483;47.384;8.860;2024-02-28T07:55:35;94769.38;;;1.33;47.89
74921;BME280;63483;47.384;8.860;2024-02-28T07:58:00;94769.84;;;1.38;48.40
74921;BME280;63483;47.384;8.860;2024-02-28T08:00:25;94768.78;;;1.40;47.20
74921;BME280;63483;47.384;8.860;2024-02-28T08:02:51;94776.91;;;1.36;52.25
74921;BME280;63483;47.384;8.860;2024-02-28T08:05:16;94779.19;;;1.73;53.09
74921;BME280;63483;47.384;8.860;2024-02-28T08:07:42;94779.22;;;1.94;48.07
74921;BME280;63483;47.384;8.860;2024-02-28T08:10:08;94784.75;;;2.01;51.91
74921;BME280;63483;47.384;8.860;2024-02-28T08:12:35;94779.09;;;2.28;52.19
74921;BME280;63483;47.384;8.860;2024-02-28T08:15:00;94786.78;;;2.39;50.13
74921;BME280;63483;47.384;8.860;2024-02-28T08:17:26;94798.09;;;2.59;51.94
74921;BME280;63483;47.384;8.860;2024-02-28T08:19:51;94793.72;;;2.60;52.48
74921;BME280;63483;47.384;8.860;2024-02-28T08:22:16;94790.88;;;2.84;51.40
74921;BME280;63483;47.384;8.860;2024-02-28T08:24:41;94796.50;;;2.89;51.65
74921;BME280;63483;47.384;8.860;2024-02-28T08:27:07;94791.22;;;3.00;51.55
74921;BME280;63483;47.384;8.860;2024-02-28T08:29:32;94804.63;;;2.84;52.17
74921;BME280;63483;47.384;8.860;2024-02-28T08:32:01;94803.69;;;2.22;48.69
74921;BME280;63483;47.384;8.860;2024-02-28T08:34:26;94805.94;;;1.72;48.70
74921;BME280;63483;47.384;8.860;2024-02-28T08:36:52;94803.38;;;1.38;48.21
74921;BME280;63483;47.384;8.860;2024-02-28T08:39:17;94804.34;;;1.14;48.05
74921;BME280;63483;47.384;8.860;2024-02-28T08:41:42;94802.50;;;0.94;49.33
74921;BME280;63483;47.384;8.860;2024-02-28T08:44:08;94803.63;;;0.78;50.56
74921;BME280;63483;47.384;8.860;2024-02-28T08:46:33;94810.91;;;0.73;48.94
74921;BME280;63483;47.384;8.860;2024-02-28T08:48:58;94811.81;;;0.61;49.96
74921;BME280;63483;47.384;8.860;2024-02-28T08:51:24;94814.38;;;0.49;50.40
74921;BME280;63483;47.384;8.860;2024-02-28T08:53:49;94821.38;;;0.36;49.11
74921;BME280;63483;47.384;8.860;2024-02-28T08:56:14;94818.28;;;0.31;49.46
74921;BME280;63483;47.384;8.860;2024-02-28T08:58:40;94826.53;;;0.47;49.98
74921;BME280;63483;47.384;8.860;2024-02-28T09:01:05;94821.84;;;0.41;49.53
74921;BME280;63483;47.384;8.860;2024-02-28T09:03:30;94825.78;;;0.34;51.70
74921;BME280;63483;47.384;8.860;2024-02-28T09:05:56;94820.19;;;0.40;51.12
74921;BME280;63483;47.384;8.860;2024-02-28T09:08:21;94822.97;;;0.61;48.19
74921;BME280;63483;47.384;8.860;2024-02-28T09:10:46;94826.59;;;0.70;49.75
74921;BME280;63483;47.384;8.860;2024-02-28T09:13:12;94830.75;;;0.95;51.90
74921;BME280;63483;47.384;8.860;2024-02-28T09:15:38;94824.53;;;1.20;50.71
74921;BME280;63483;47.384;8.860;2024-02-28T09:18:03;94823.00;;;1.06;44.23
74921;BME280;63483;47.384;8.860;2024-02-28T09:20:29;94824.78;;;1.17;50.20
74921;BME280;63483;47.384;8.860;2024-02-28T09:22:54;94822.22;;;1.51;50.23
74921;BME280;63483;47.384;8.860;2024-02-28T09:25:19;94824.47;;;1.88;51.98
74921;BME280;63483;47.384;8.860;2024-02-28T09:27:46;94823.00;;;2.07;54.75
74921;BME280;63483;47.384;8.860;2024-02-28T09:30:12;94827.38;;;2.27;54.44
74921;BME280;63483;47.384;8.860;2024-02-28T09:32:37;94823.69;;;2.62;54.14
74921;BME280;63483;47.384;8.860;2024-02-28T09:35:04;94828.00;;;2.52;54.23
74921;BME280;63483;47.384;8.860;2024-02-28T09:37:30;94820.66;;;2.57;54.30
74921;BME280;63483;47.384;8.860;2024-02-28T09:39:57;94826.72;;;2.67;53.90
74921;BME280;63483;47.384;8.860;2024-02-28T09:42:22;94822.00;;;2.73;53.92
74921;BME280;63483;47.384;8.860;2024-02-28T09:44:48;94814.59;;;2.89;53.61
74921;BME280;63483;47.384;8.860;2024-02-28T09:47:13;94814.50;;;3.00;53.20
74921;BME280;63483;47.384;8.860;2024-02-28T09:49:39;94817.41;;;3.07;52.95
74921;BME280;63483;47.384;8.860;2024-02-28T09:52:06;94820.28;;;3.35;53.02
74921;BME280;63483;47.384;8.860;2024-02-28T09:54:32;94814.84;;;3.38;53.05
74921;BME280;63483;47.384;8.860;2024-02-28T09:56:57;94813.81;;;3.60;52.86
74921;BME280;63483;47.384;8.860;2024-02-28T09:59:23;94806.63;;;3.74;52.14
74921;BME280;63483;47.384;8.860;2024-02-28T10:01:59;94820.97;;;3.87;52.35
74921;BME280;63483;47.384;8.860;2024-02-28T10:04:26;94816.47;;;3.99;52.23
74921;BME280;63483;47.384;8.860;2024-02-28T10:06:52;94813.34;;;4.05;51.64
74921;BME280;63483;47.384;8.860;2024-02-28T10:09:18;94810.91;;;4.14;51.42
74921;BME280;63483;47.384;8.860;2024-02-28T10:11:43;94811.72;;;4.24;51.32
74921;BME280;63483;47.384;8.860;2024-02-28T10:14:09;94821.81;;;4.07;51.65
74921;BME280;63483;47.384;8.860;2024-02-28T10:16:34;94817.16;;;4.11;51.36
74921;BME280;63483;47.384;8.860;2024-02-28T10:19:00;94818.69;;;4.14;51.79
74921;BME280;63483;47.384;8.860;2024-02-28T10:21:25;94813.88;;;3.99;52.40
74921;BME280;63483;47.384;8.860;2024-02-28T10:23:51;94822.31;;;4.01;52.54
74921;BME280;63483;47.384;8.860;2024-02-28T10:26:16;94814.97;;;4.26;52.02
74921;BME280;63483;47.384;8.860;2024-02-28T10:28:42;94814.72;;;4.29;52.45
74921;BME280;63483;47.384;8.860;2024-02-28T10:31:09;94819.88;;;4.49;51.85
74921;BME280;63483;47.384;8.860;2024-02-28T10:33:35;94814.56;;;4.60;51.45
74921;BME280;63483;47.384;8.860;2024-02-28T10:36:05;94815.22;;;4.72;51.44
74921;BME280;63483;47.384;8.860;2024-02-28T10:38:31;94811.78;;;4.81;51.39
74921;BME280;63483;47.384;8.860;2024-02-28T10:40:59;94818.75;;;4.81;51.20
74921;BME280;63483;47.384;8.860;2024-02-28T10:43:27;94822.16;;;4.91;50.54
74921;BME280;63483;47.384;8.860;2024-02-28T10:45:56;94812.47;;;4.93;50.69
74921;BME280;63483;47.384;8.860;2024-02-28T10:48:22;94811.66;;;5.02;50.01
74921;BME280;63483;47.384;8.860;2024-02-28T10:50:48;94810.19;;;4.70;50.38
74921;BME280;63483;47.384;8.860;2024-02-28T10:53:16;94810.34;;;4.39;51.54
74921;BME280;63483;47.384;8.860;2024-02-28T10:55:48;94810.47;;;4.48;51.62
74921;BME280;63483;47.384;8.860;2024-02-28T10:58:14;94805.66;;;4.72;51.80
74921;BME280;63483;47.384;8.860;2024-02-28T11:00:41;94810.28;;;4.88;51.60
74921;BME280;63483;47.384;8.860;2024-02-28T11:03:09;94816.56;;;5.05;50.34
74921;BME280;63483;47.384;8.860;2024-02-28T11:05:39;94815.50;;;4.59;51.55
74921;BME280;63483;47.384;8.860;2024-02-28T11:08:24;94814.69;;;4.49;51.24
74921;BME280;63483;47.384;8.860;2024-02-28T11:10:57;94818.28;;;4.28;52.08
74921;BME280;63483;47.384;8.860;2024-02-28T11:13:26;94817.44;;;4.37;51.04
74921;BME280;63483;47.384;8.860;2024-02-28T11:15:52;94818.25;;;4.48;51.01
74921;BME280;63483;47.384;8.860;2024-02-28T11:18:18;94818.09;;;4.59;50.52
74921;BME280;63483;47.384;8.860;2024-02-28T11:20:44;94823.19;;;4.51;50.88
74921;BME280;63483;47.384;8.860;2024-02-28T11:23:12;94810.63;;;4.36;51.46
74921;BME280;63483;47.384;8.860;2024-02-28T11:25:39;94812.25;;;4.57;51.25
74921;BME280;63483;47.384;8.860;2024-02-28T11:28:05;94816.22;;;4.61;50.90
74921;BME280;63483;47.384;8.860;2024-02-28T11:30:30;94818.41;;;4.27;51.57
74921;BME280;63483;47.384;8.860;2024-02-28T11:32:56;94822.78;;;4.16;51.80
74921;BME280;63483;47.384;8.860;2024-02-28T11:35:24;94819.56;;;3.83;50.75
74921;BME280;63483;47.384;8.860;2024-02-28T11:37:50;94812.19;;;3.59;49.56
74921;BME280;63483;47.384;8.860;2024-02-28T11:40:16;94813.06;;;3.39;51.17
74921;BME280;63483;47.384;8.860;2024-02-28T11:42:41;94826.16;;;3.16;50.35
74921;BME280;63483;47.384;8.860;2024-02-28T11:45:10;94815.53;;;2.88;46.92
74921;BME280;63483;47.384;8.860;2024-02-28T11:47:36;94814.91;;;2.75;50.49
74921;BME280;63483;47.384;8.860;2024-02-28T11:50:02;94820.59;;;2.69;46.80
74921;BME280;63483;47.384;8.860;2024-02-28T11:52:30;94820.84;;;2.65;52.89
74921;BME280;63483;47.384;8.860;2024-02-28T11:54:56;94825.41;;;2.73;53.35
74921;BME280;63483;47.384;8.860;2024-02-28T11:57:21;94819.25;;;2.95;50.80
74921;BME280;63483;47.384;8.860;2024-02-28T11:59:47;94820.78;;;2.77;54.90
74921;BME280;63483;47.384;8.860;2024-02-28T12:02:14;94824.25;;;2.87;53.02
74921;BME280;63483;47.384;8.860;2024-02-28T12:04:40;94824.94;;;2.89;52.15
74921;BME280;63483;47.384;8.860;2024-02-28T12:07:07;94827.22;;;2.61;55.34
74921;BME280;63483;47.384;8.860;2024-02-28T12:09:32;94820.16;;;2.84;54.54
74921;BME280;63483;47.384;8.860;2024-02-28T12:12:00;94826.31;;;2.93;51.26
74921;BME280;63483;47.384;8.860;2024-02-28T12:14:26;94819.75;;;3.41;51.63
74921;BME280;63483;47.384;8.860;2024-02-28T12:16:52;94816.16;;;3.63;51.01
74921;BME280;63483;47.384;8.860;2024-02-28T12:19:17;94827.00;;;3.47;52.61
74921;BME280;63483;47.384;8.860;2024-02-28T12:21:45;94834.03;;;3.86;52.31
74921;BME280;63483;47.384;8.860;2024-02-28T12:24:10;94834.22;;;4.14;51.43
74921;BME280;63483;47.384;8.860;2024-02-28T12:26:37;94834.63;;;4.19;51.48
74921;BME280;63483;47.384;8.860;2024-02-28T12:29:02;94831.09;;;4.39;51.08
74921;BME280;63483;47.384;8.860;2024-02-28T12:31:28;94825.06;;;4.49;51.05
74921;BME280;63483;47.384;8.860;2024-02-28T12:33:53;94829.44;;;4.19;51.03
74921;BME280;63483;47.384;8.860;2024-02-28T12:36:20;94825.91;;;4.39;50.69
74921;BME280;63483;47.384;8.860;2024-02-28T12:38:45;94830.00;;;4.52;49.96
74921;BME280;63483;47.384;8.860;2024-02-28T12:41:11;94826.03;;;4.67;49.84
74921;BME280;63483;47.384;8.860;2024-02-28T12:43:36;94826.41;;;4.72;49.30
74921;BME280;63483;47.384;8.860;2024-02-28T12:46:02;94832.44;;;4.63;50.75
74921;BME280;63483;47.384;8.860;2024-02-28T12:48:27;94828.34;;;4.60;50.21
74921;BME280;63483;47.384;8.860;2024-02-28T12:50:53;94831.59;;;4.72;50.60
74921;BME280;63483;47.384;8.860;2024-02-28T12:53:18;94828.59;;;4.87;49.97
74921;BME280;63483;47.384;8.860;2024-02-28T12:55:43;94823.66;;;4.84;50.00
74921;BME280;63483;47.384;8.860;2024-02-28T12:58:10;94832.75;;;4.40;50.78
74921;BME280;63483;47.384;8.860;2024-02-28T13:00:36;94828.38;;;4.31;51.21
74921;BME280;63483;47.384;8.860;2024-02-28T13:03:01;94835.88;;;4.54;50.76